Time;durP1;ratioP1;P1;durP2;ratioP2;P2;SDS_P1;SDS_P2;PMS_P1;PMS_P2;Temp;Humidity;BMP_temperature;BMP_pressure;BME280_temperature;BME280_humidity;BME280_pressure;Samples;Min_cycle;Max_cycle;Signal;HPM_P1;HPM_P2
2022/09/16 06:41:48;;;;;;;3.92;1.92;;;;;;;;;;5103067;27;21168;-63
2022/09/16 06:44:13;;;;;;;3.35;2.05;;;;;;;;;;5058935;27;20044;-63
2022/09/16 06:46:38;;;;;;;7.07;2.40;;;;;;;;;;5065359;28;20024;-63
2022/09/16 06:49:04;;;;;;;12.27;2.65;;;;;;;;;;5083696;28;20029;-63
2022/09/16 06:51:30;;;;;;;6.20;2.60;;;;;;;;;;5083135;28;20146;-63
2022/09/16 06:54:01;;;;;;;3.42;2.22;;;;;;;;;;5083635;28;20142;-64
2022/09/16 06:56:27;;;;;;;8.55;2.60;;;;;;;;;;5092215;28;20505;-63
2022/09/16 06:58:54;;;;;;;10.50;4.38;;;;;;;;;;5048064;28;20561;-63
2022/09/16 07:01:22;;;;;;;4.43;2.45;;;;;;;;;;5038666;28;20045;-63
2022/09/16 07:03:50;;;;;;;5.10;2.67;;;;;;;;;;5040319;28;20478;-63
2022/09/16 07:06:16;;;;;;;6.30;2.65;;;;;;;;;;5039253;28;20024;-63
2022/09/16 07:08:43;;;;;;;8.43;2.80;;;;;;;;;;5042588;28;20030;-63
2022/09/16 07:11:11;;;;;;;4.10;2.80;;;;;;;;;;5042085;28;20045;-63
2022/09/16 07:13:36;;;;;;;173.95;117.78;;;;;;;;;;5038677;28;20057;-63
2022/09/16 07:16:05;;;;;;;7.32;2.30;;;;;;;;;;5039354;28;20098;-63
2022/09/16 07:18:31;;;;;;;6.00;2.35;;;;;;;;;;5038275;28;20131;-63
2022/09/16 07:21:03;;;;;;;6.45;2.10;;;;;;;;;;5062406;28;20559;-64
2022/09/16 07:23:30;;;;;;;4.77;2.33;;;;;;;;;;5045092;28;20041;-63
2022/09/16 07:26:17;;;;;;;4.60;2.08;;;;;;;;;;5040564;28;20033;-64
2022/09/16 07:28:45;;;;;;;3.67;2.00;;;;;;;;;;5049888;28;20043;-63
2022/09/16 07:31:13;;;;;;;2.10;1.50;;;;;;;;;;5048172;28;20526;-63
2022/09/16 07:33:41;;;;;;;3.30;2.08;;;;;;;;;;5039461;28;20071;-63
2022/09/16 07:36:08;;;;;;;4.07;2.15;;;;;;;;;;5040977;28;20028;-63
2022/09/16 07:38:34;;;;;;;4.50;2.13;;;;;;;;;;5030198;28;21296;-63
2022/09/16 07:41:08;;;;;;;4.07;1.60;;;;;;;;;;5024689;28;20042;-63
2022/09/16 07:43:34;;;;;;;2.60;1.27;;;;;;;;;;5028680;28;20040;-63
2022/09/16 07:46:00;;;;;;;2.33;1.40;;;;;;;;;;5025625;28;20406;-63
2022/09/16 07:48:28;;;;;;;3.30;1.40;;;;;;;;;;5042369;28;20060;-63
2022/09/16 07:50:58;;;;;;;6.13;1.60;;;;;;;;;;5037372;28;20098;-63
2022/09/16 07:53:26;;;;;;;2.90;1.55;;;;;;;;;;5026020;28;20060;-63
2022/09/16 07:55:52;;;;;;;3.75;1.60;;;;;;;;;;5040317;28;20040;-63
2022/09/16 07:58:18;;;;;;;3.00;1.80;;;;;;;;;;5019491;28;20514;-63
2022/09/16 08:00:44;;;;;;;5.05;1.90;;;;;;;;;;5025586;28;20040;-63
2022/09/16 08:03:09;;;;;;;4.28;1.83;;;;;;;;;;5042909;28;20021;-63
2022/09/16 08:05:34;;;;;;;1.63;1.33;;;;;;;;;;5015751;28;20034;-63
2022/09/16 08:08:00;;;;;;;3.15;1.85;;;;;;;;;;5023039;28;20045;-64
2022/09/16 08:10:25;;;;;;;5.03;1.80;;;;;;;;;;5014917;28;20030;-64
2022/09/16 08:12:51;;;;;;;7.05;1.75;;;;;;;;;;5033168;28;20044;-63
2022/09/16 08:15:16;;;;;;;5.72;1.92;;;;;;;;;;5048175;28;20525;-64
2022/09/16 08:17:41;;;;;;;5.38;1.90;;;;;;;;;;5028831;28;20046;-63
2022/09/16 08:20:07;;;;;;;3.88;1.80;;;;;;;;;;5042508;28;20040;-63
2022/09/16 08:22:33;;;;;;;4.90;1.77;;;;;;;;;;5057111;28;20039;-61
2022/09/16 08:24:58;;;;;;;5.40;1.75;;;;;;;;;;5043700;28;20503;-61
2022/09/16 08:27:23;;;;;;;3.88;2.10;;;;;;;;;;5026976;28;20521;-61
2022/09/16 08:29:49;;;;;;;3.38;2.00;;;;;;;;;;5033245;28;20028;-61
2022/09/16 08:32:14;;;;;;;6.82;2.25;;;;;;;;;;5015535;28;20044;-61
2022/09/16 08:34:39;;;;;;;4.35;2.20;;;;;;;;;;5017691;28;20076;-61
2022/09/16 08:37:05;;;;;;;5.72;3.25;;;;;;;;;;5027448;28;20441;-61
2022/09/16 08:39:31;;;;;;;3.00;2.33;;;;;;;;;;5037955;28;20034;-61
2022/09/16 08:42:28;;;;;;;4.53;2.50;;;;;;;;;;5027341;28;20053;-61
2022/09/16 08:45:04;;;;;;;5.57;2.05;;;;;;;;;;5037987;28;20049;-61
2022/09/16 08:47:40;;;;;;;4.70;2.47;;;;;;;;;;5007197;28;20038;-61
2022/09/16 08:50:15;;;;;;;4.90;2.53;;;;;;;;;;5026414;28;20044;-61
2022/09/16 08:52:42;;;;;;;2.60;1.70;;;;;;;;;;5022915;28;20056;-61
2022/09/16 08:55:31;;;;;;;2.97;1.80;;;;;;;;;;5026504;28;20084;-61
2022/09/16 08:58:06;;;;;;;3.53;2.10;;;;;;;;;;5027623;28;20072;-61
2022/09/16 09:00:31;;;;;;;3.22;1.80;;;;;;;;;;5031342;28;20049;-61
2022/09/16 09:03:17;;;;;;;10.10;2.38;;;;;;;;;;5027267;28;20075;-60
2022/09/16 09:05:54;;;;;;;5.95;2.30;;;;;;;;;;5026879;28;20060;-61
2022/09/16 09:08:34;;;;;;;5.15;2.30;;;;;;;;;;5027140;28;20557;-61
2022/09/16 09:11:16;;;;;;;10.80;2.65;;;;;;;;;;5030460;28;20091;-61
2022/09/16 09:13:53;;;;;;;7.97;2.20;;;;;;;;;;5027214;28;20037;-61
2022/09/16 09:16:35;;;;;;;3.60;2.28;;;;;;;;;;5034861;28;20159;-61
2022/09/16 09:19:25;;;;;;;4.10;2.25;;;;;;;;;;5046324;28;20414;-61
2022/09/16 09:22:09;;;;;;;3.85;2.40;;;;;;;;;;5025949;28;20410;-61
2022/09/16 09:24:59;;;;;;;6.57;2.78;;;;;;;;;;5016904;28;20365;-61
2022/09/16 09:28:03;;;;;;;6.45;3.00;;;;;;;;;;5014018;28;20037;-61
2022/09/16 09:30:31;;;;;;;5.32;2.72;;;;;;;;;;5021182;28;20471;-61
2022/09/16 09:32:59;;;;;;;7.35;2.67;;;;;;;;;;5022113;28;20033;-61
2022/09/16 09:35:37;;;;;;;3.70;2.30;;;;;;;;;;5024178;28;20490;-61
2022/09/16 09:38:03;;;;;;;3.45;1.60;;;;;;;;;;5018037;28;20053;-61
2022/09/16 09:40:49;;;;;;;9.82;1.90;;;;;;;;;;5023228;28;20045;-62
2022/09/16 09:43:33;;;;;;;5.85;1.60;;;;;;;;;;5024074;28;20403;-62
2022/09/16 09:46:11;;;;;;;5.43;1.30;;;;;;;;;;5024573;28;20683;-62
2022/09/16 09:49:01;;;;;;;2.30;1.33;;;;;;;;;;5026566;28;20048;-62
2022/09/16 09:52:02;;;;;;;5.20;1.10;;;;;;;;;;5023457;28;20022;-62
2022/09/16 09:54:30;;;;;;;3.13;1.00;;;;;;;;;;5025789;28;20083;-62
2022/09/16 09:57:01;;;;;;;2.90;1.00;;;;;;;;;;5021092;28;20126;-63
2022/09/16 09:59:31;;;;;;;6.43;0.98;;;;;;;;;;5020915;28;20072;-62
2022/09/16 10:02:00;;;;;;;1.63;0.90;;;;;;;;;;5014153;28;20046;-62
2022/09/16 10:04:29;;;;;;;3.88;1.10;;;;;;;;;;5007493;28;20037;-63
2022/09/16 10:06:55;;;;;;;4.43;0.93;;;;;;;;;;5007911;28;20083;-63
2022/09/16 10:09:21;;;;;;;3.92;1.05;;;;;;;;;;5027100;28;20026;-62
2022/09/16 10:11:54;;;;;;;4.50;1.00;;;;;;;;;;5032685;28;20126;-63
2022/09/16 10:14:23;;;;;;;5.35;1.10;;;;;;;;;;5045064;28;20132;-62
2022/09/16 10:16:51;;;;;;;0.77;0.73;;;;;;;;;;5042559;28;20040;-63
2022/09/16 10:19:20;;;;;;;3.40;0.70;;;;;;;;;;5042395;28;20032;-63
2022/09/16 10:21:49;;;;;;;1.00;0.60;;;;;;;;;;5033850;28;20064;-63
2022/09/16 10:24:37;;;;;;;1.10;0.93;;;;;;;;;;5020183;28;20029;-63
2022/09/16 10:27:34;;;;;;;2.17;0.95;;;;;;;;;;5040985;28;20041;-63
2022/09/16 10:30:18;;;;;;;0.70;0.68;;;;;;;;;;5023364;28;20029;-63
2022/09/16 10:33:03;;;;;;;1.05;0.70;;;;;;;;;;5019931;28;20485;-62
2022/09/16 10:35:31;;;;;;;2.00;0.85;;;;;;;;;;5030982;28;20036;-62
2022/09/16 10:38:18;;;;;;;0.82;0.60;;;;;;;;;;5025012;28;20601;-63
2022/09/16 10:41:00;;;;;;;2.25;0.70;;;;;;;;;;5027611;28;20062;-63
2022/09/16 10:43:27;;;;;;;4.82;0.80;;;;;;;;;;5021003;28;20065;-62
2022/09/16 10:45:54;;;;;;;3.63;0.90;;;;;;;;;;5025358;28;20037;-63
2022/09/16 10:48:25;;;;;;;2.58;0.93;;;;;;;;;;5045457;28;20025;-62
2022/09/16 10:50:55;;;;;;;1.98;1.00;;;;;;;;;;5036159;28;20041;-63
2022/09/16 10:53:26;;;;;;;2.28;0.88;;;;;;;;;;5045688;28;20044;-63
2022/09/16 10:56:00;;;;;;;1.52;0.70;;;;;;;;;;5042870;28;20136;-63
2022/09/16 10:58:25;;;;;;;2.95;0.80;;;;;;;;;;5048627;28;20044;-62
2022/09/16 11:00:57;;;;;;;2.50;1.00;;;;;;;;;;5039692;28;20049;-63
2022/09/16 11:04:19;;;;;;;1.15;0.75;;;;;;;;;;5044482;28;20029;-62
2022/09/16 11:07:04;;;;;;;4.22;0.85;;;;;;;;;;5022624;28;20502;-63
2022/09/16 11:09:41;;;;;;;2.45;0.80;;;;;;;;;;5041411;28;20032;-62
2022/09/16 11:12:25;;;;;;;2.05;0.75;;;;;;;;;;5041629;28;20449;-63
2022/09/16 11:15:03;;;;;;;1.90;1.10;;;;;;;;;;5037971;28;20158;-63
2022/09/16 11:17:43;;;;;;;1.67;0.82;;;;;;;;;;5046508;28;20132;-63
2022/09/16 11:20:33;;;;;;;3.08;1.00;;;;;;;;;;5037964;28;20037;-63
2022/09/16 11:23:34;;;;;;;1.83;0.93;;;;;;;;;;5040101;28;20041;-63
2022/09/16 11:26:35;;;;;;;3.72;1.08;;;;;;;;;;5037381;28;20045;-63
2022/09/16 11:29:22;;;;;;;3.00;1.00;;;;;;;;;;5040451;28;20045;-62
2022/09/16 11:32:09;;;;;;;2.63;0.82;;;;;;;;;;5035592;28;20037;-63
2022/09/16 11:34:55;;;;;;;2.83;1.00;;;;;;;;;;5027954;28;20084;-62
2022/09/16 11:37:28;;;;;;;1.10;0.95;;;;;;;;;;5024358;28;20060;-63
2022/09/16 11:40:12;;;;;;;;;;;;;;;;;;5026730;28;20430;-62
2022/09/16 11:42:48;;;;;;;1.20;0.80;;;;;;;;;;5032265;28;19921;-62
2022/09/16 11:45:24;;;;;;;2.05;0.73;;;;;;;;;;5025978;28;20621;-63
2022/09/16 11:48:10;;;;;;;1.40;0.80;;;;;;;;;;5029162;28;20132;-63
2022/09/16 11:50:48;;;;;;;2.75;1.00;;;;;;;;;;5038872;28;20041;-63
2022/09/16 11:53:44;;;;;;;2.78;1.00;;;;;;;;;;5026655;28;20143;-63
2022/09/16 11:56:32;;;;;;;3.53;0.82;;;;;;;;;;5038263;28;20492;-63
2022/09/16 11:59:14;;;;;;;3.85;1.02;;;;;;;;;;5047913;28;20083;-62
2022/09/16 12:01:47;;;;;;;2.08;0.85;;;;;;;;;;5048189;28;20414;-63
2022/09/16 12:04:12;;;;;;;;;;;;;;;;;;5047312;28;20728;-63
2022/09/16 12:07:00;;;;;;;6.53;1.00;;;;;;;;;;5052732;28;19909;-63
2022/09/16 12:09:50;;;;;;;1.67;0.82;;;;;;;;;;5047818;28;20265;-63
2022/09/16 12:12:18;;;;;;;3.63;1.00;;;;;;;;;;5049229;28;20044;-62
2022/09/16 12:14:52;;;;;;;1.85;0.90;;;;;;;;;;5045286;28;20533;-63
2022/09/16 12:17:27;;;;;;;2.83;1.15;;;;;;;;;;5045984;28;20041;-63
2022/09/16 12:20:01;;;;;;;2.65;1.00;;;;;;;;;;5037686;28;20087;-62
2022/09/16 12:22:33;;;;;;;2.80;1.35;;;;;;;;;;5046409;28;20045;-62
2022/09/16 12:24:58;;;;;;;1.75;1.15;;;;;;;;;;5047832;28;20032;-62
2022/09/16 12:27:39;;;;;;;2.25;1.00;;;;;;;;;;5049571;28;20466;-62
2022/09/16 12:30:22;;;;;;;2.58;1.20;;;;;;;;;;5049422;28;20032;-62
2022/09/16 12:33:00;;;;;;;3.20;1.00;;;;;;;;;;5040156;28;20052;-62
2022/09/16 12:35:44;;;;;;;1.80;0.82;;;;;;;;;;5044051;28;20033;-62
2022/09/16 12:38:17;;;;;;;3.00;1.05;;;;;;;;;;5040721;28;20036;-62
2022/09/16 12:40:46;;;;;;;3.95;0.85;;;;;;;;;;5040817;28;20131;-62
2022/09/16 12:43:42;;;;;;;2.75;1.00;;;;;;;;;;5026188;28;20073;-62
2022/09/16 12:46:17;;;;;;;1.73;0.93;;;;;;;;;;5023626;28;20394;-62
2022/09/16 12:49:11;;;;;;;4.18;1.00;;;;;;;;;;5024828;28;20057;-62
2022/09/16 12:52:14;;;;;;;4.22;0.90;;;;;;;;;;5024403;28;20475;-62
2022/09/16 12:55:13;;;;;;;4.28;0.95;;;;;;;;;;5022175;28;20052;-62
2022/09/16 12:58:16;;;;;;;1.23;0.77;;;;;;;;;;5029359;28;20091;-62
2022/09/16 13:01:06;;;;;;;2.88;0.82;;;;;;;;;;5027547;28;20425;-62
2022/09/16 13:03:36;;;;;;;5.15;1.10;;;;;;;;;;5039226;28;20029;-62
2022/09/16 13:06:06;;;;;;;1.88;0.52;;;;;;;;;;5028189;28;20713;-65
2022/09/16 13:08:33;;;;;;;4.85;1.20;;;;;;;;;;5032003;28;20049;-65
2022/09/16 13:11:06;;;;;;;2.78;0.88;;;;;;;;;;5019934;28;20034;-65
2022/09/16 13:13:46;;;;;;;7.40;1.13;;;;;;;;;;5022722;28;20060;-64
2022/09/16 13:16:11;;;;;;;2.33;1.00;;;;;;;;;;5030829;28;20037;-64
2022/09/16 13:19:03;;;;;;;4.65;0.90;;;;;;;;;;5037514;28;20110;-62
2022/09/16 13:21:39;;;;;;;5.00;1.00;;;;;;;;;;5043693;28;20981;-62
2022/09/16 13:24:23;;;;;;;7.65;0.93;;;;;;;;;;5040097;28;20025;-62
2022/09/16 13:26:49;;;;;;;3.35;0.98;;;;;;;;;;5043318;28;20095;-61
2022/09/16 13:29:38;;;;;;;5.47;1.08;;;;;;;;;;5019899;28;20046;-62
2022/09/16 13:32:04;;;;;;;5.50;1.05;;;;;;;;;;5045658;28;20049;-64
2022/09/16 13:34:30;;;;;;;3.22;0.90;;;;;;;;;;5030929;28;20037;-64
2022/09/16 13:36:57;;;;;;;2.03;0.80;;;;;;;;;;5038534;28;20076;-64
2022/09/16 13:39:33;;;;;;;2.75;0.90;;;;;;;;;;5023542;28;20033;-64
2022/09/16 13:42:19;;;;;;;0.77;0.75;;;;;;;;;;5021922;28;20108;-64
2022/09/16 13:44:45;;;;;;;2.40;0.80;;;;;;;;;;5041985;28;20041;-64
2022/09/16 13:47:11;;;;;;;3.45;1.25;;;;;;;;;;5019847;28;20037;-64
2022/09/16 13:49:47;;;;;;;6.45;0.82;;;;;;;;;;5012282;28;20803;-64
2022/09/16 13:52:19;;;;;;;5.18;0.77;;;;;;;;;;5015859;28;20561;-64
2022/09/16 13:54:51;;;;;;;1.77;0.52;;;;;;;;;;5024680;28;20033;-64
2022/09/16 13:57:22;;;;;;;3.60;1.00;;;;;;;;;;5042001;28;20029;-62
2022/09/16 13:59:56;;;;;;;1.05;0.65;;;;;;;;;;5019097;28;20153;-62
2022/09/16 14:02:38;;;;;;;0.95;0.50;;;;;;;;;;5040971;28;20072;-62
2022/09/16 14:05:20;;;;;;;2.13;0.80;;;;;;;;;;5031389;28;20069;-62
2022/09/16 14:08:05;;;;;;;1.15;0.65;;;;;;;;;;5015778;28;20037;-63
2022/09/16 14:10:40;;;;;;;2.92;0.70;;;;;;;;;;5034700;28;20158;-62
2022/09/16 14:13:15;;;;;;;1.13;0.75;;;;;;;;;;5037720;28;20037;-62
2022/09/16 14:15:45;;;;;;;2.22;0.75;;;;;;;;;;5013649;28;20108;-63
2022/09/16 14:18:17;;;;;;;1.63;0.60;;;;;;;;;;5022881;28;20555;-63
2022/09/16 14:21:00;;;;;;;4.75;0.70;;;;;;;;;;5024499;28;20052;-62
2022/09/16 14:23:26;;;;;;;;;;;;;;;;;;5023573;28;20072;-63
2022/09/16 14:25:53;;;;;;;0.77;0.50;;;;;;;;;;5040469;28;19970;-62
2022/09/16 14:28:22;;;;;;;4.40;0.65;;;;;;;;;;5035249;28;20029;-63
2022/09/16 14:30:59;;;;;;;0.90;0.55;;;;;;;;;;5023415;28;20609;-63
2022/09/16 14:33:30;;;;;;;3.45;0.52;;;;;;;;;;5030967;28;20041;-62
2022/09/16 14:35:57;;;;;;;1.48;0.68;;;;;;;;;;5040536;28;20034;-62
2022/09/16 14:38:37;;;;;;;1.13;0.50;;;;;;;;;;5023769;28;20064;-63
2022/09/16 14:41:08;;;;;;;4.85;0.80;;;;;;;;;;5023622;28;20176;-63
2022/09/16 14:43:36;;;;;;;2.50;0.55;;;;;;;;;;5030875;28;20521;-62
2022/09/16 14:46:01;;;;;;;0.75;0.50;;;;;;;;;;5041972;28;20390;-62
2022/09/16 14:48:34;;;;;;;1.00;0.52;;;;;;;;;;5042541;28;20032;-62
2022/09/16 14:51:01;;;;;;;3.00;0.70;;;;;;;;;;5047146;28;20017;-63
2022/09/16 14:53:32;;;;;;;3.85;0.60;;;;;;;;;;5044229;28;20037;-62
2022/09/16 14:55:58;;;;;;;0.57;0.40;;;;;;;;;;5046698;28;20040;-62
2022/09/16 14:58:26;;;;;;;1.02;0.68;;;;;;;;;;5038175;28;20037;-62
2022/09/16 15:00:57;;;;;;;1.65;0.50;;;;;;;;;;5029330;28;20041;-63
2022/09/16 15:03:44;;;;;;;1.80;0.60;;;;;;;;;;5064522;28;20029;-63
2022/09/16 15:06:24;;;;;;;2.90;0.50;;;;;;;;;;5046826;28;20064;-63
2022/09/16 15:09:02;;;;;;;0.35;0.35;;;;;;;;;;5043122;28;20076;-62
2022/09/16 15:11:33;;;;;;;1.40;0.50;;;;;;;;;;5048118;28;20053;-62
2022/09/16 15:13:59;;;;;;;1.25;0.60;;;;;;;;;;5047615;28;20033;-62
2022/09/16 15:16:26;;;;;;;0.73;0.70;;;;;;;;;;5050411;28;20041;-62
2022/09/16 15:18:56;;;;;;;1.63;0.68;;;;;;;;;;5044939;28;20032;-62
2022/09/16 15:21:24;;;;;;;2.42;0.50;;;;;;;;;;5050553;28;20188;-62
2022/09/16 15:23:51;;;;;;;1.73;0.70;;;;;;;;;;5045835;28;20028;-62
2022/09/16 15:26:21;;;;;;;1.25;0.70;;;;;;;;;;5047607;28;20521;-62
2022/09/16 15:29:03;;;;;;;1.40;0.60;;;;;;;;;;5057992;28;20029;-62
2022/09/16 15:31:39;;;;;;;1.42;0.70;;;;;;;;;;5070024;28;20021;-62
2022/09/16 15:34:26;;;;;;;1.83;0.60;;;;;;;;;;5068562;28;20048;-62
2022/09/16 15:36:56;;;;;;;1.92;1.10;;;;;;;;;;5069906;28;20063;-62
2022/09/16 15:39:32;;;;;;;2.05;0.60;;;;;;;;;;5070323;28;20058;-61
2022/09/16 15:42:15;;;;;;;3.20;0.88;;;;;;;;;;5054335;28;20033;-62
2022/09/16 15:44:51;;;;;;;2.08;0.88;;;;;;;;;;5028746;28;20577;-62
2022/09/16 15:47:22;;;;;;;4.00;0.82;;;;;;;;;;5030064;28;20411;-62
2022/09/16 15:49:52;;;;;;;9.15;2.72;;;;;;;;;;5029784;28;20045;-63
2022/09/16 15:52:18;;;;;;;12.68;0.80;;;;;;;;;;5026903;28;20044;-63
2022/09/16 15:54:43;;;;;;;12.13;1.17;;;;;;;;;;5028523;28;20099;-62
2022/09/16 15:57:21;;;;;;;0.55;0.50;;;;;;;;;;5019154;28;20116;-62
2022/09/16 15:59:58;;;;;;;0.82;0.50;;;;;;;;;;5028715;28;20118;-62
2022/09/16 16:02:42;;;;;;;1.48;0.40;;;;;;;;;;5033196;28;20120;-62
2022/09/16 16:05:14;;;;;;;1.42;0.50;;;;;;;;;;5034457;28;20040;-62
2022/09/16 16:07:47;;;;;;;2.72;0.55;;;;;;;;;;5050870;28;20033;-62
2022/09/16 16:10:23;;;;;;;0.77;0.50;;;;;;;;;;5067890;28;20032;-62
2022/09/16 16:12:50;;;;;;;1.02;0.52;;;;;;;;;;5067162;28;20044;-62
2022/09/16 16:15:18;;;;;;;7.55;0.80;;;;;;;;;;5065991;28;20111;-61
2022/09/16 16:17:46;;;;;;;3.15;1.10;;;;;;;;;;5027947;28;20052;-62
2022/09/16 16:20:13;;;;;;;3.25;0.98;;;;;;;;;;5027537;28;20033;-63
2022/09/16 16:22:39;;;;;;;0.80;0.57;;;;;;;;;;5027280;28;20175;-63
2022/09/16 16:25:05;;;;;;;1.05;0.60;;;;;;;;;;5033023;28;20037;-63
2022/09/16 16:27:31;;;;;;;3.70;0.73;;;;;;;;;;5047042;28;20078;-63
2022/09/16 16:29:56;;;;;;;6.47;1.33;;;;;;;;;;5047758;28;20115;-63
2022/09/16 16:32:22;;;;;;;2.00;0.90;;;;;;;;;;5046917;28;20049;-63
2022/09/16 16:34:51;;;;;;;4.32;0.82;;;;;;;;;;5045687;28;20059;-63
2022/09/16 16:37:18;;;;;;;6.50;0.85;;;;;;;;;;5042332;28;20033;-63
2022/09/16 16:39:44;;;;;;;1.98;0.90;;;;;;;;;;5027251;28;20048;-63
2022/09/16 16:42:14;;;;;;;1.58;0.88;;;;;;;;;;5046616;28;20037;-63
2022/09/16 16:44:40;;;;;;;5.35;1.00;;;;;;;;;;5046614;28;20037;-63
2022/09/16 16:47:07;;;;;;;0.90;0.60;;;;;;;;;;5045984;28;20043;-63
2022/09/16 16:49:35;;;;;;;4.55;0.90;;;;;;;;;;5047165;28;20060;-62
2022/09/16 16:52:01;;;;;;;0.65;0.65;;;;;;;;;;5059275;28;20071;-62
2022/09/16 16:54:27;;;;;;;1.45;0.77;;;;;;;;;;5049106;28;20044;-63
2022/09/16 16:56:53;;;;;;;3.97;1.13;;;;;;;;;;5027314;28;20037;-63
2022/09/16 16:59:19;;;;;;;3.85;0.60;;;;;;;;;;5026834;28;20137;-63
2022/09/16 17:01:46;;;;;;;1.55;0.85;;;;;;;;;;5041726;28;20145;-63
2022/09/16 17:04:12;;;;;;;1.48;0.93;;;;;;;;;;5040946;28;20029;-63
2022/09/16 17:06:38;;;;;;;5.07;1.13;;;;;;;;;;5011158;28;20616;-63
2022/09/16 17:09:07;;;;;;;0.68;0.60;;;;;;;;;;5012895;28;20144;-63
2022/09/16 17:11:32;;;;;;;2.25;0.70;;;;;;;;;;5027562;28;20076;-63
2022/09/16 17:14:01;;;;;;;2.78;1.10;;;;;;;;;;5026831;28;20065;-63
2022/09/16 17:16:27;;;;;;;3.70;1.13;;;;;;;;;;5027515;28;20064;-63
2022/09/16 17:18:53;;;;;;;2.72;0.85;;;;;;;;;;5027043;28;20034;-63
2022/09/16 17:21:24;;;;;;;0.60;0.60;;;;;;;;;;5027862;28;20025;-63
2022/09/16 17:23:50;;;;;;;0.80;0.65;;;;;;;;;;5027502;28;20044;-63
2022/09/16 17:26:16;;;;;;;1.25;0.50;;;;;;;;;;5025676;28;20033;-62
2022/09/16 17:28:43;;;;;;;6.72;0.70;;;;;;;;;;5026547;28;20055;-62
2022/09/16 17:31:24;;;;;;;0.77;0.50;;;;;;;;;;5029374;28;20033;-62
2022/09/16 17:33:53;;;;;;;3.40;0.70;;;;;;;;;;5031423;28;20037;-63
2022/09/16 17:36:21;;;;;;;2.22;0.60;;;;;;;;;;5047320;28;20052;-62
2022/09/16 17:38:46;;;;;;;3.85;0.90;;;;;;;;;;5047338;28;20048;-62
2022/09/16 17:41:14;;;;;;;2.95;1.00;;;;;;;;;;5030811;28;20057;-62
2022/09/16 17:43:41;;;;;;;2.25;0.90;;;;;;;;;;5021229;28;20959;-61
2022/09/16 17:46:11;;;;;;;4.43;0.95;;;;;;;;;;5023792;28;20426;-62
2022/09/16 17:48:37;;;;;;;11.27;3.20;;;;;;;;;;5024393;28;20465;-62
2022/09/16 17:51:03;;;;;;;4.05;1.58;;;;;;;;;;5025497;28;20505;-63
2022/09/16 17:53:29;;;;;;;6.22;1.45;;;;;;;;;;5042620;28;20040;-63
2022/09/16 17:56:09;;;;;;;2.28;1.13;;;;;;;;;;5046948;28;20131;-63
2022/09/16 17:58:36;;;;;;;4.38;1.50;;;;;;;;;;5043676;28;20033;-63
2022/09/16 18:01:10;;;;;;;5.28;1.58;;;;;;;;;;5045047;28;20533;-63
2022/09/16 18:03:36;;;;;;;3.35;1.10;;;;;;;;;;5046062;28;20025;-63
2022/09/16 18:06:08;;;;;;;2.88;1.70;;;;;;;;;;5045196;28;20021;-62
2022/09/16 18:08:34;;;;;;;4.13;1.30;;;;;;;;;;5044710;28;20041;-63
2022/09/16 18:10:59;;;;;;;3.88;1.60;;;;;;;;;;5046114;28;20033;-62
2022/09/16 18:13:24;;;;;;;4.40;1.20;;;;;;;;;;5045179;28;20043;-62
2022/09/16 18:15:50;;;;;;;3.35;1.48;;;;;;;;;;5045733;28;20029;-62
2022/09/16 18:18:17;;;;;;;2.03;1.25;;;;;;;;;;5040932;28;20060;-62
2022/09/16 18:20:42;;;;;;;3.95;1.73;;;;;;;;;;5037706;28;20048;-63
2022/09/16 18:23:07;;;;;;;4.40;1.60;;;;;;;;;;5043961;28;20041;-62
2022/09/16 18:25:36;;;;;;;5.35;2.00;;;;;;;;;;5043534;28;20029;-62
2022/09/16 18:28:02;;;;;;;5.63;1.90;;;;;;;;;;5045047;28;20025;-62
2022/09/16 18:30:27;;;;;;;3.10;1.35;;;;;;;;;;5045351;28;20052;-62
2022/09/16 18:32:53;;;;;;;1.95;1.10;;;;;;;;;;5045773;28;20028;-62
2022/09/16 18:35:18;;;;;;;1.98;1.05;;;;;;;;;;5042205;28;20045;-62
2022/09/16 18:37:44;;;;;;;3.85;1.10;;;;;;;;;;5045659;28;20033;-62
2022/09/16 18:40:10;;;;;;;1.38;0.95;;;;;;;;;;5045510;28;20091;-62
2022/09/16 18:42:35;;;;;;;1.85;0.93;;;;;;;;;;5059597;28;20536;-63
2022/09/16 18:45:00;;;;;;;5.15;1.00;;;;;;;;;;5044184;28;20033;-62
2022/09/16 18:47:26;;;;;;;4.85;1.08;;;;;;;;;;5043642;28;20032;-62
2022/09/16 18:49:51;;;;;;;2.70;0.70;;;;;;;;;;5045928;28;20039;-62
2022/09/16 18:52:16;;;;;;;2.35;0.70;;;;;;;;;;5045988;28;20037;-63
2022/09/16 18:54:45;;;;;;;2.83;0.82;;;;;;;;;;5046528;28;20028;-62
2022/09/16 18:57:11;;;;;;;2.45;0.57;;;;;;;;;;5044724;28;20040;-62
2022/09/16 18:59:37;;;;;;;3.60;0.82;;;;;;;;;;5046410;28;20041;-62
2022/09/16 19:02:03;;;;;;;3.97;0.82;;;;;;;;;;5046060;28;20048;-62
2022/09/16 19:04:31;;;;;;;1.38;0.70;;;;;;;;;;5044157;28;20029;-62
2022/09/16 19:07:04;;;;;;;1.10;0.80;;;;;;;;;;5042620;28;20017;-63
2022/09/16 19:09:30;;;;;;;4.85;1.08;;;;;;;;;;5044153;28;20170;-63
2022/09/16 19:11:56;;;;;;;10.23;0.80;;;;;;;;;;5038265;28;20033;-63
2022/09/16 19:14:26;;;;;;;2.63;0.82;;;;;;;;;;5038698;28;20044;-63
2022/09/16 19:16:52;;;;;;;4.53;1.00;;;;;;;;;;5037838;28;20037;-63
2022/09/16 19:19:19;;;;;;;3.80;0.98;;;;;;;;;;5050949;28;20124;-63
2022/09/16 19:21:44;;;;;;;6.28;0.85;;;;;;;;;;5039240;28;20013;-63
2022/09/16 19:24:15;;;;;;;6.53;1.20;;;;;;;;;;5036837;28;20726;-62
2022/09/16 19:26:43;;;;;;;3.00;1.35;;;;;;;;;;5039365;28;20049;-63
2022/09/16 19:29:09;;;;;;;2.03;0.90;;;;;;;;;;5039410;28;20035;-63
2022/09/16 19:31:38;;;;;;;3.30;0.60;;;;;;;;;;5035667;28;20055;-63
2022/09/16 19:34:04;;;;;;;3.03;0.88;;;;;;;;;;5036734;28;20412;-63
2022/09/16 19:36:32;;;;;;;2.72;0.57;;;;;;;;;;5039157;28;20112;-62
2022/09/16 19:38:58;;;;;;;3.78;0.80;;;;;;;;;;5038747;28;20036;-62
2022/09/16 19:41:26;;;;;;;4.90;0.85;;;;;;;;;;5034730;28;20120;-62
2022/09/16 19:43:57;;;;;;;4.88;1.25;;;;;;;;;;5033422;28;20183;-62
2022/09/16 19:46:22;;;;;;;6.15;1.05;;;;;;;;;;5034430;28;20278;-63
2022/09/16 19:48:48;;;;;;;5.78;0.98;;;;;;;;;;5037508;28;20020;-62
2022/09/16 19:51:16;;;;;;;2.55;0.90;;;;;;;;;;5041806;28;20033;-62
2022/09/16 19:53:43;;;;;;;4.55;1.05;;;;;;;;;;5036908;28;20066;-62
2022/09/16 19:56:12;;;;;;;7.75;1.85;;;;;;;;;;5041603;28;20029;-62
2022/09/16 19:58:39;;;;;;;6.05;1.30;;;;;;;;;;5042760;28;20391;-62
2022/09/16 20:01:10;;;;;;;4.15;1.30;;;;;;;;;;5043676;28;20056;-62
2022/09/16 20:03:38;;;;;;;3.60;1.20;;;;;;;;;;5042954;28;20056;-62
2022/09/16 20:06:07;;;;;;;7.55;1.35;;;;;;;;;;5043519;28;20037;-63
2022/09/16 20:08:35;;;;;;;2.15;1.10;;;;;;;;;;5042176;28;20095;-62
2022/09/16 20:11:08;;;;;;;1.65;0.90;;;;;;;;;;5042970;28;20128;-62
2022/09/16 20:13:34;;;;;;;2.50;1.27;;;;;;;;;;5047009;28;20569;-62
2022/09/16 20:16:04;;;;;;;4.93;0.98;;;;;;;;;;5048599;28;20056;-62
2022/09/16 20:18:32;;;;;;;3.83;1.13;;;;;;;;;;5049035;28;20486;-62
2022/09/16 20:21:01;;;;;;;2.85;1.10;;;;;;;;;;5044757;28;20136;-62
2022/09/16 20:23:27;;;;;;;1.98;1.02;;;;;;;;;;5039492;28;20067;-62
2022/09/16 20:25:58;;;;;;;3.15;1.08;;;;;;;;;;5040349;28;20040;-62
2022/09/16 20:28:23;;;;;;;5.15;1.15;;;;;;;;;;5042329;28;20069;-62
2022/09/16 20:30:49;;;;;;;3.63;1.35;;;;;;;;;;5047084;28;20544;-62
2022/09/16 20:33:14;;;;;;;4.45;1.05;;;;;;;;;;5046695;28;20041;-62
2022/09/16 20:35:40;;;;;;;2.58;0.98;;;;;;;;;;5040924;28;20792;-62
2022/09/16 20:38:06;;;;;;;4.55;0.90;;;;;;;;;;5031439;28;20037;-62
2022/09/16 20:40:31;;;;;;;2.58;0.90;;;;;;;;;;5028051;28;20045;-62
2022/09/16 20:42:56;;;;;;;4.03;1.02;;;;;;;;;;5027770;28;20068;-62
2022/09/16 20:45:22;;;;;;;4.88;1.13;;;;;;;;;;5025263;28;20037;-62
2022/09/16 20:47:52;;;;;;;3.08;0.80;;;;;;;;;;5027782;28;20090;-63
2022/09/16 20:50:17;;;;;;;4.78;1.67;;;;;;;;;;5026160;28;20045;-62
2022/09/16 20:52:42;;;;;;;6.13;1.08;;;;;;;;;;5027669;28;20080;-62
2022/09/16 20:55:08;;;;;;;2.08;0.98;;;;;;;;;;5027513;28;20068;-63
2022/09/16 20:57:33;;;;;;;4.25;1.10;;;;;;;;;;5042662;28;20074;-63
2022/09/16 20:59:58;;;;;;;3.67;1.00;;;;;;;;;;5044238;28;20067;-63
2022/09/16 21:02:24;;;;;;;2.92;0.80;;;;;;;;;;5042674;28;20040;-63
2022/09/16 21:04:49;;;;;;;4.90;0.88;;;;;;;;;;5043456;28;20422;-63
2022/09/16 21:07:15;;;;;;;3.28;1.38;;;;;;;;;;5039731;28;20123;-63
2022/09/16 21:09:40;;;;;;;4.20;0.98;;;;;;;;;;5040914;28;20032;-63
2022/09/16 21:12:06;;;;;;;1.48;1.13;;;;;;;;;;5041165;28;20644;-63
2022/09/16 21:14:31;;;;;;;2.97;0.70;;;;;;;;;;5034580;28;20167;-63
2022/09/16 21:16:58;;;;;;;4.30;1.02;;;;;;;;;;5045617;28;20099;-63
2022/09/16 21:19:24;;;;;;;2.35;1.25;;;;;;;;;;5047672;28;20279;-63
2022/09/16 21:21:49;;;;;;;5.35;1.60;;;;;;;;;;5047496;28;20563;-62
2022/09/16 21:24:16;;;;;;;3.83;1.35;;;;;;;;;;5047206;28;20032;-63
2022/09/16 21:26:43;;;;;;;3.95;1.20;;;;;;;;;;5047027;28;20056;-63
2022/09/16 21:29:12;;;;;;;6.53;1.58;;;;;;;;;;5047650;28;20426;-63
2022/09/16 21:31:39;;;;;;;8.57;1.10;;;;;;;;;;5047916;28;20029;-63
2022/09/16 21:34:09;;;;;;;2.38;0.80;;;;;;;;;;5046906;28;20625;-63
2022/09/16 21:36:36;;;;;;;6.70;1.02;;;;;;;;;;5047621;28;20697;-63
2022/09/16 21:39:01;;;;;;;2.60;0.73;;;;;;;;;;5045719;28;20426;-63
2022/09/16 21:41:27;;;;;;;1.45;0.75;;;;;;;;;;5047432;28;20052;-63
2022/09/16 21:43:56;;;;;;;2.70;1.05;;;;;;;;;;5047552;28;20072;-63
2022/09/16 21:46:25;;;;;;;5.28;1.75;;;;;;;;;;5047862;28;20128;-63
2022/09/16 21:48:51;;;;;;;2.60;0.90;;;;;;;;;;5047861;28;20074;-63
2022/09/16 21:51:18;;;;;;;2.75;0.77;;;;;;;;;;5043272;28;20689;-63